createdAt,value
2018-06-30T00:00:03.019Z,99.99
2018-06-30T00:01:03.008Z,99.99
2018-06-30T00:02:03.261Z,99.99
2018-06-30T00:03:02.991Z,99.99
2018-06-30T00:04:02.979Z,99.99
2018-06-30T00:05:03.238Z,99.99
2018-06-30T00:06:03.222Z,99.99
2018-06-30T00:07:02.946Z,99.99
2018-06-30T00:08:02.940Z,99.99
2018-06-30T00:09:02.928Z,99.99
2018-06-30T00:10:02.918Z,99.99
2018-06-30T00:11:03.169Z,99.99
2018-06-30T00:12:02.896Z,99.99
2018-06-30T00:13:03.153Z,99.99
2018-06-30T00:14:02.874Z,99.99
2018-06-30T00:15:03.133Z,99.99
2018-06-30T00:16:02.853Z,99.99
2018-06-30T00:17:03.108Z,99.99
2018-06-30T00:18:03.102Z,99.99
2018-06-30T00:19:02.824Z,99.68
2018-06-30T00:20:02.817Z,99.87
2018-06-30T00:21:03.065Z,99.01
2018-06-30T00:22:03.052Z,99.2
2018-06-30T00:23:03.049Z,98.82
2018-06-30T00:24:03.034Z,99.01
2018-06-30T00:25:03.024Z,98.91
2018-06-30T00:26:02.745Z,98.72
2018-06-30T00:27:02.737Z,98.91
2018-06-30T00:28:02.730Z,99.1
2018-06-30T00:29:02.718Z,98.14
2018-06-30T00:30:02.977Z,97.96
2018-06-30T00:31:02.691Z,98.24
2018-06-30T00:32:02.949Z,98.14
2018-06-30T00:33:02.939Z,98.43
2018-06-30T00:34:02.661Z,97.52
2018-06-30T00:35:02.917Z,97.71
2018-06-30T00:36:02.906Z,97.14
2018-06-30T00:37:02.894Z,96.75
2018-06-30T00:38:02.622Z,97.14
2018-06-30T00:39:02.878Z,97.04
2018-06-30T00:40:02.860Z,96.85
2018-06-30T00:41:02.854Z,97.04
2018-06-30T00:42:02.574Z,96.75
2018-06-30T00:43:02.565Z,96.66
2018-06-30T00:44:02.557Z,95.89
2018-06-30T00:45:02.809Z,95.89
2018-06-30T00:46:02.801Z,95.89
2018-06-30T00:47:02.794Z,95.03
2018-06-30T00:48:02.516Z,94.64
2018-06-30T00:49:02.776Z,94.64
2018-06-30T00:50:02.492Z,95.03
2018-06-30T00:51:02.744Z,94.83
2018-06-30T00:52:02.764Z,94.07
2018-06-30T00:53:02.720Z,94.26
2018-06-30T00:54:02.712Z,94.64
2018-06-30T00:55:02.435Z,94.54
2018-06-30T00:56:02.686Z,94.26
2018-06-30T00:57:02.414Z,94.07
2018-06-30T00:58:02.403Z,93.97
2018-06-30T00:59:02.663Z,94.26
2018-06-30T01:00:02.384Z,94.07
2018-06-30T01:01:02.380Z,94.07
2018-06-30T01:02:02.627Z,93.39
2018-06-30T01:03:02.348Z,93.2
2018-06-30T01:04:02.610Z,94.35
2018-06-30T01:05:02.333Z,93.59
2018-06-30T01:06:02.583Z,93.15
2018-06-30T01:07:02.603Z,92.96
2018-06-30T01:08:02.568Z,92.86
2018-06-30T01:09:02.546Z,92.96
2018-06-30T01:10:02.542Z,93.06
2018-06-30T01:11:02.266Z,92.86
2018-06-30T01:12:02.519Z,92.58
2018-06-30T01:13:02.239Z,92.48
2018-06-30T01:14:02.504Z,92.1
2018-06-30T01:15:02.500Z,91.62
2018-06-30T01:16:02.472Z,91.52
2018-06-30T01:17:02.198Z,91.14
2018-06-30T01:18:02.189Z,91.05
2018-06-30T01:19:02.174Z,90.28
2018-06-30T01:20:02.444Z,90.47
2018-06-30T01:21:02.424Z,90.08
2018-06-30T01:22:02.408Z,89.51
2018-06-30T01:23:02.410Z,89.41
2018-06-30T01:24:02.121Z,89.41
2018-06-30T01:25:02.373Z,89.61
2018-06-30T01:26:02.362Z,88.51
2018-06-30T01:27:02.094Z,89.03
2018-06-30T01:28:02.343Z,88.17
2018-06-30T01:29:02.326Z,87.68
2018-06-30T01:30:02.319Z,87.59
2018-06-30T01:31:02.038Z,87.01
2018-06-30T01:32:02.031Z,87.01
2018-06-30T01:33:02.019Z,86.78
2018-06-30T01:34:02.011Z,86.78
2018-06-30T01:35:01.995Z,86.3
2018-06-30T01:36:02.250Z,86.21
2018-06-30T01:37:02.235Z,85.28
2018-06-30T01:38:01.962Z,84.48
2018-06-30T01:39:02.215Z,84.19
2018-06-30T01:40:02.202Z,84.67
2018-06-30T01:41:01.927Z,84.19
2018-06-30T01:42:01.915Z,83.61
2018-06-30T01:43:01.914Z,84.09
2018-06-30T01:44:01.895Z,83.91
2018-06-30T01:45:02.146Z,83.81
2018-06-30T01:46:02.138Z,83.33
2018-06-30T01:47:01.860Z,82.56
2018-06-30T01:48:02.109Z,82.65
2018-06-30T01:49:01.839Z,82.94
2018-06-30T01:50:02.091Z,82.75
2018-06-30T01:51:02.080Z,82.08
2018-06-30T01:52:01.810Z,82.27
2018-06-30T01:53:02.056Z,81.7
2018-06-30T01:54:02.046Z,81.22
2018-06-30T01:55:02.031Z,81.12
2018-06-30T01:56:02.019Z,81.22
2018-06-30T01:57:02.014Z,81.22
2018-06-30T01:58:01.999Z,81.12
2018-06-30T01:59:01.991Z,81.02
2018-06-30T02:00:01.985Z,80.74
2018-06-30T02:01:01.963Z,80.35
2018-06-30T02:02:01.685Z,80.35
2018-06-30T02:03:01.936Z,79.39
2018-06-30T02:04:01.925Z,79.88
2018-06-30T02:05:01.656Z,79.3
2018-06-30T02:06:01.644Z,79.78
2018-06-30T02:07:01.895Z,79.01
2018-06-30T02:08:01.888Z,79.21
2018-06-30T02:09:01.872Z,78.92
2018-06-30T02:10:01.874Z,79.01
2018-06-30T02:11:01.585Z,78.92
2018-06-30T02:12:01.575Z,78.63
2018-06-30T02:13:01.830Z,78.25
2018-06-30T02:14:01.545Z,77.86
2018-06-30T02:15:01.823Z,76.62
2018-06-30T02:16:01.789Z,76.23
2018-06-30T02:17:01.776Z,75.56
2018-06-30T02:18:01.761Z,75.56
2018-06-30T02:19:01.488Z,75.85
2018-06-30T02:20:01.478Z,75.95
2018-06-30T02:21:01.468Z,75.75
2018-06-30T02:22:01.461Z,75.27
2018-06-30T02:23:01.709Z,75.23
2018-06-30T02:24:01.457Z,74.31
2018-06-30T02:25:01.420Z,73.32
2018-06-30T02:26:01.405Z,73.8
2018-06-30T02:27:01.667Z,74.6
2018-06-30T02:28:01.388Z,74.27
2018-06-30T02:29:01.376Z,74.76
2018-06-30T02:30:01.631Z,74.37
2018-06-30T02:31:01.352Z,73.9
2018-06-30T02:32:01.606Z,73.9
2018-06-30T02:33:01.591Z,73.51
2018-06-30T02:34:01.587Z,73.22
2018-06-30T02:35:01.569Z,73.22
2018-06-30T02:36:01.300Z,73.03
2018-06-30T02:37:01.544Z,73.03
2018-06-30T02:38:01.269Z,72.94
2018-06-30T02:39:01.259Z,72.84
2018-06-30T02:40:01.532Z,72.84
2018-06-30T02:41:01.503Z,72.84
2018-06-30T02:42:01.221Z,71.78
2018-06-30T02:43:01.490Z,72.17
2018-06-30T02:44:01.200Z,72.45
2018-06-30T02:45:01.458Z,71.59
2018-06-30T02:46:01.650Z,71.88
2018-06-30T02:47:01.171Z,71.31
2018-06-30T02:48:01.424Z,71.11
2018-06-30T02:49:01.141Z,70.73
2018-06-30T02:50:01.393Z,70.15
2018-06-30T02:51:01.380Z,69.87
2018-06-30T02:52:01.385Z,69.2
2018-06-30T02:53:01.093Z,69.2
2018-06-30T02:54:01.355Z,68.81
2018-06-30T02:55:01.332Z,69.1
2018-06-30T02:56:01.334Z,69.2
2018-06-30T02:57:01.307Z,68.05
2018-06-30T02:58:01.032Z,68.62
2018-06-30T02:59:01.024Z,68.91
2018-06-30T03:00:01.273Z,68.81
2018-06-30T03:01:01.004Z,68.43
2018-06-30T03:02:00.988Z,69.2
2018-06-30T03:03:01.247Z,69.01
2018-06-30T03:04:00.956Z,68.72
2018-06-30T03:05:00.949Z,69.48
2018-06-30T03:06:01.201Z,69.68
2018-06-30T03:07:01.194Z,69.58
2018-06-30T03:08:00.922Z,68.62
2018-06-30T03:09:01.166Z,67.95
2018-06-30T03:10:01.159Z,67.95
2018-06-30T03:11:01.152Z,67.76
2018-06-30T03:12:01.133Z,67.95
2018-06-30T03:13:01.118Z,67.09
2018-06-30T03:14:01.118Z,67.09
2018-06-30T03:15:01.096Z,66.99
2018-06-30T03:16:00.824Z,66.8
2018-06-30T03:17:01.073Z,66.89
2018-06-30T03:18:00.799Z,67.47
2018-06-30T03:19:00.785Z,67.18
2018-06-30T03:20:00.789Z,67.18
2018-06-30T03:21:01.024Z,66.99
2018-06-30T03:22:01.013Z,66.13
2018-06-30T03:23:01.001Z,63.54
2018-06-30T03:24:00.988Z,65.08
2018-06-30T03:25:00.707Z,64.89
2018-06-30T03:26:00.701Z,64.79
2018-06-30T03:27:00.953Z,64.98
2018-06-30T03:28:00.676Z,64.69
2018-06-30T03:29:00.662Z,63.54
2018-06-30T03:30:00.919Z,64.59
2018-06-30T03:31:00.641Z,64.89
2018-06-30T03:32:00.630Z,63.54
2018-06-30T03:33:00.616Z,64.63
2018-06-30T03:34:00.620Z,65.68
2018-06-30T03:35:00.794Z,66.03
2018-06-30T03:36:00.595Z,65.84
2018-06-30T03:37:00.573Z,65.88
2018-06-30T03:38:00.836Z,65.59
2018-06-30T03:39:00.545Z,66.61
2018-06-30T03:40:00.798Z,67.02
2018-06-30T03:41:00.785Z,66.42
2018-06-30T03:42:00.777Z,65.88
2018-06-30T03:43:00.759Z,66.22
2018-06-30T03:44:00.767Z,66.64
2018-06-30T03:45:00.480Z,66.83
2018-06-30T03:46:00.467Z,65.49
2018-06-30T03:47:00.722Z,65.49
2018-06-30T03:48:00.439Z,65.49
2018-06-30T03:49:00.697Z,65.2
2018-06-30T03:50:00.677Z,64.72
2018-06-30T03:51:00.668Z,64.53
2018-06-30T03:52:00.391Z,63.57
2018-06-30T03:53:00.649Z,63.29
2018-06-30T03:54:00.372Z,63.96
2018-06-30T03:55:00.632Z,63.57
2018-06-30T03:56:00.349Z,64.43
2018-06-30T03:57:00.336Z,64.63
2018-06-30T03:58:00.599Z,64.92
2018-06-30T03:59:00.575Z,65.2
2018-06-30T04:00:00.298Z,65.49
2018-06-30T04:01:00.553Z,65.68
2018-06-30T04:02:00.276Z,65.88
2018-06-30T04:03:00.271Z,66
2018-06-30T04:04:00.525Z,66.26
2018-06-30T04:05:00.254Z,67.35
2018-06-30T04:06:00.493Z,67.73
2018-06-30T04:07:00.486Z,68.21
2018-06-30T04:08:00.481Z,68.69
2018-06-30T04:09:00.464Z,68.21
2018-06-30T04:10:00.183Z,67.35
2018-06-30T04:11:00.440Z,67.92
2018-06-30T04:12:00.162Z,68.5
2018-06-30T04:13:00.157Z,68.12
2018-06-30T04:14:00.402Z,69.07
2018-06-30T04:15:00.126Z,68.5
2018-06-30T04:16:00.381Z,69.07
2018-06-30T04:17:00.112Z,68.5
2018-06-30T04:18:00.097Z,68.59
2018-06-30T04:19:00.349Z,68.79
2018-06-30T04:20:00.073Z,69.17
2018-06-30T04:21:00.323Z,69.65
2018-06-30T04:22:00.401Z,70.45
2018-06-30T04:23:00.300Z,71.22
2018-06-30T04:24:00.037Z,71.31
2018-06-30T04:25:00.285Z,71.98
2018-06-30T04:26:00.268Z,72.85
2018-06-30T04:26:59.993Z,71.51
2018-06-30T04:28:00.247Z,72.56
2018-06-30T04:28:59.976Z,72.18
2018-06-30T04:30:00.222Z,72.85
2018-06-30T04:31:00.212Z,73.14
2018-06-30T04:32:00.202Z,73.91
2018-06-30T04:32:59.927Z,74.68
2018-06-30T04:33:59.913Z,75.06
2018-06-30T04:34:59.910Z,75.06
2018-06-30T04:35:59.895Z,75.45
2018-06-30T04:37:00.150Z,75.54
2018-06-30T04:37:59.874Z,75.63
2018-06-30T04:38:59.860Z,75.67
2018-06-30T04:40:00.115Z,76.64
2018-06-30T04:40:59.841Z,76.54
2018-06-30T04:42:00.098Z,76.54
2018-06-30T04:42:59.823Z,77.11
2018-06-30T04:43:59.807Z,77.11
2018-06-30T04:45:00.066Z,77.31
2018-06-30T04:45:59.826Z,77.4
2018-06-30T04:46:59.773Z,77.21
2018-06-30T04:47:59.765Z,77.11
2018-06-30T04:49:00.025Z,77.98
2018-06-30T04:50:00.010Z,78.08
2018-06-30T04:50:59.767Z,77.69
2018-06-30T04:51:59.984Z,77.98
2018-06-30T04:52:59.974Z,78.65
2018-06-30T04:53:59.698Z,77.69
2018-06-30T04:54:59.691Z,77.88
2018-06-30T04:55:59.679Z,78.27
2018-06-30T04:56:59.928Z,78.65
2018-06-30T04:57:59.916Z,78.55
2018-06-30T04:58:59.907Z,80.28
2018-06-30T04:59:59.904Z,80.38
2018-06-30T05:00:59.622Z,79.99
2018-06-30T05:01:59.878Z,80.57
2018-06-30T05:02:59.598Z,80.66
2018-06-30T05:03:59.856Z,80.57
2018-06-30T05:04:59.841Z,80.57
2018-06-30T05:05:59.839Z,81.05
2018-06-30T05:06:59.822Z,81.43
2018-06-30T05:07:59.813Z,81.72
2018-06-30T05:08:59.798Z,81.43
2018-06-30T05:09:59.842Z,81.53
2018-06-30T05:10:59.782Z,81.63
2018-06-30T05:11:59.771Z,81.72
2018-06-30T05:12:59.895Z,81.72
2018-06-30T05:13:59.756Z,82.05
2018-06-30T05:14:59.475Z,82.1
2018-06-30T05:15:59.460Z,82.34
2018-06-30T05:16:59.715Z,82.24
2018-06-30T05:17:59.712Z,83.3
2018-06-30T05:18:59.432Z,83.78
2018-06-30T05:19:59.685Z,84.55
2018-06-30T05:20:59.407Z,84.36
2018-06-30T05:21:59.401Z,84.26
2018-06-30T05:22:59.393Z,83.78
2018-06-30T05:23:59.379Z,83.49
2018-06-30T05:24:59.366Z,83.78
2018-06-30T05:25:59.820Z,84.64
2018-06-30T05:26:59.611Z,84.84
2018-06-30T05:27:59.605Z,84.55
2018-06-30T05:28:59.329Z,86.28
2018-06-30T05:29:59.580Z,85.99
2018-06-30T05:30:59.572Z,87.53
2018-06-30T05:31:59.304Z,87.34
2018-06-30T05:32:59.555Z,86.95
2018-06-30T05:33:59.537Z,87.15
2018-06-30T05:34:59.737Z,88.01
2018-06-30T05:35:59.521Z,88.01
2018-06-30T05:36:59.513Z,89.16
2018-06-30T05:37:59.503Z,89.07
2018-06-30T05:38:59.492Z,89.07
2018-06-30T05:39:59.212Z,90.12
2018-06-30T05:40:59.199Z,90.65
2018-06-30T05:41:59.191Z,90.84
2018-06-30T05:42:59.444Z,90.75
2018-06-30T05:43:59.433Z,90.26
2018-06-30T05:44:59.424Z,90.65
2018-06-30T05:45:59.416Z,90.94
2018-06-30T05:46:59.410Z,90.55
2018-06-30T05:47:59.131Z,92.96
2018-06-30T05:48:59.382Z,93.63
2018-06-30T05:49:59.371Z,92.57
2018-06-30T05:50:59.360Z,92.19
2018-06-30T05:51:59.084Z,92.38
2018-06-30T05:52:59.079Z,92.96
2018-06-30T05:53:59.066Z,94.4
2018-06-30T05:54:59.329Z,94.88
2018-06-30T05:55:59.044Z,95.26
2018-06-30T05:56:59.296Z,95.75
2018-06-30T05:57:59.294Z,94.78
2018-06-30T05:58:59.282Z,95.65
2018-06-30T05:59:59.007Z,95.84
2018-06-30T06:00:59.000Z,95.4
2018-06-30T06:01:58.988Z,95.79
2018-06-30T06:02:59.240Z,95.5
2018-06-30T06:03:58.962Z,96.47
2018-06-30T06:04:59.215Z,96.56
2018-06-30T06:05:59.214Z,97.52
2018-06-30T06:06:58.933Z,97.14
2018-06-30T06:07:58.935Z,97.71
2018-06-30T06:08:59.182Z,96.66
2018-06-30T06:09:58.955Z,97.42
2018-06-30T06:10:59.158Z,97.91
2018-06-30T06:11:58.888Z,99.99
2018-06-30T06:12:58.876Z,99.99
2018-06-30T06:13:58.864Z,99.99
2018-06-30T06:14:59.153Z,99.99
2018-06-30T06:15:58.845Z,99.99
2018-06-30T06:16:59.106Z,99.99
2018-06-30T06:17:59.090Z,99.99
2018-06-30T06:18:59.080Z,99.99
2018-06-30T06:19:58.808Z,99.99
2018-06-30T06:20:58.796Z,99.99
2018-06-30T06:21:59.048Z,99.99
2018-06-30T06:22:58.777Z,99.99
2018-06-30T06:23:58.767Z,99.99
2018-06-30T06:24:59.022Z,99.99
2018-06-30T06:25:59.138Z,99.99
2018-06-30T06:26:59.006Z,99.99
2018-06-30T06:27:59.004Z,99.99
2018-06-30T06:28:58.993Z,99.99
2018-06-30T06:29:58.714Z,99.99
2018-06-30T06:30:58.706Z,99.99
2018-06-30T06:31:58.958Z,99.99
2018-06-30T06:32:58.692Z,99.99
2018-06-30T06:33:58.684Z,99.99
2018-06-30T06:34:58.948Z,99.99
2018-06-30T06:35:58.663Z,99.99
2018-06-30T06:36:58.915Z,99.99
2018-06-30T06:37:58.910Z,99.99
2018-06-30T06:38:58.919Z,99.99
2018-06-30T06:39:58.624Z,99.99
2018-06-30T06:40:58.617Z,99.99
2018-06-30T06:41:58.877Z,99.99
2018-06-30T06:42:58.604Z,99.99
2018-06-30T06:43:58.857Z,99.99
2018-06-30T06:44:58.593Z,99.99
2018-06-30T06:45:58.837Z,99.99
2018-06-30T06:46:58.564Z,99.99
2018-06-30T06:47:58.556Z,99.99
2018-06-30T06:48:58.811Z,99.99
2018-06-30T06:49:58.539Z,99.99
2018-06-30T06:50:58.909Z,99.99
2018-06-30T06:51:58.520Z,99.99
2018-06-30T06:52:58.788Z,99.99
2018-06-30T06:53:58.503Z,99.99
2018-06-30T06:54:58.764Z,99.99
2018-06-30T06:55:58.496Z,99.99
2018-06-30T06:56:58.752Z,99.99
2018-06-30T06:57:58.739Z,99.99
2018-06-30T06:58:58.469Z,99.99
2018-06-30T06:59:58.726Z,99.99
2018-06-30T07:00:58.732Z,99.69
2018-06-30T07:01:58.713Z,89.48
2018-06-30T07:02:58.449Z,85.11
2018-06-30T07:03:58.694Z,79.41
2018-06-30T07:04:58.452Z,76.92
2018-06-30T07:05:58.679Z,74.18
2018-06-30T07:06:58.418Z,73.15
2018-06-30T07:07:58.666Z,70.72
2018-06-30T07:08:58.394Z,68.9
2018-06-30T07:09:58.394Z,69.13
2018-06-30T07:10:58.382Z,67.7
2018-06-30T07:11:58.638Z,67.54
2018-06-30T07:12:58.675Z,66.08
2018-06-30T07:13:58.618Z,65.3
2018-06-30T07:14:58.613Z,65.2
2018-06-30T07:15:58.607Z,64.32
2018-06-30T07:16:58.599Z,63.18
2018-06-30T07:17:58.337Z,63.41
2018-06-30T07:18:58.590Z,63.21
2018-06-30T07:19:58.311Z,63.21
2018-06-30T07:20:58.314Z,63.41
2018-06-30T07:21:58.311Z,63.15
2018-06-30T07:22:58.567Z,61.43
2018-06-30T07:23:58.296Z,60.94
2018-06-30T07:24:58.288Z,59.4
2018-06-30T07:25:58.544Z,58.94
2018-06-30T07:26:58.542Z,59.43
2018-06-30T07:27:58.536Z,59.07
2018-06-30T07:28:58.542Z,58.22
2018-06-30T07:29:58.558Z,57.36
2018-06-30T07:30:58.260Z,56.31
2018-06-30T07:31:58.529Z,56.02
2018-06-30T07:32:58.254Z,55.92
2018-06-30T07:33:58.253Z,55.14
2018-06-30T07:34:58.457Z,55.73
2018-06-30T07:35:58.245Z,55.92
2018-06-30T07:36:58.512Z,54.28
2018-06-30T07:37:58.507Z,55.24
2018-06-30T07:38:58.504Z,53.59
2018-06-30T07:39:58.505Z,54.94
2018-06-30T07:40:58.500Z,54.58
2018-06-30T07:41:58.238Z,53.63
2018-06-30T07:42:58.231Z,53.38
2018-06-30T07:43:58.235Z,52.82
2018-06-30T07:44:58.505Z,51.64
2018-06-30T07:45:58.504Z,50.98
2018-06-30T07:46:58.500Z,49.8
2018-06-30T07:47:58.262Z,51.17
2018-06-30T07:48:58.501Z,50.98
2018-06-30T07:49:58.519Z,49.04
2018-06-30T07:50:58.249Z,50.09
2018-06-30T07:51:58.238Z,50.29
2018-06-30T07:52:58.239Z,49.48
2018-06-30T07:53:58.504Z,50.27
2018-06-30T07:54:58.235Z,50.44
2018-06-30T07:55:58.505Z,50.76
2018-06-30T07:56:58.501Z,50.37
2018-06-30T07:57:58.244Z,50.24
2018-06-30T07:58:58.241Z,50.73
2018-06-30T07:59:58.507Z,50.27
2018-06-30T08:00:58.512Z,50.07
2018-06-30T08:01:58.526Z,50.16
2018-06-30T08:02:58.513Z,50.19
2018-06-30T08:03:58.246Z,48.82
2018-06-30T08:04:58.525Z,49.31
2018-06-30T08:05:58.534Z,49.11
2018-06-30T08:06:58.518Z,48.82
2018-06-30T08:07:58.257Z,48.72
2018-06-30T08:08:58.524Z,49.41
2018-06-30T08:09:58.525Z,49.11
2018-06-30T08:10:58.268Z,50.16
2018-06-30T08:11:58.530Z,50.16
2018-06-30T08:12:58.545Z,49.31
2018-06-30T08:13:58.728Z,49.11
2018-06-30T08:14:58.275Z,50.19
2018-06-30T08:15:58.547Z,48.25
2018-06-30T08:16:58.548Z,47.69
2018-06-30T08:17:58.284Z,48.96
2018-06-30T08:18:58.555Z,48.08
2018-06-30T08:19:58.297Z,48.08
2018-06-30T08:20:58.298Z,47.86
2018-06-30T08:21:58.560Z,47.19
2018-06-30T08:22:58.304Z,47.07
2018-06-30T08:23:58.571Z,47
2018-06-30T08:24:58.582Z,46.92
2018-06-30T08:25:58.576Z,46.43
2018-06-30T08:26:58.581Z,47.22
2018-06-30T08:27:58.328Z,47.02
2018-06-30T08:28:58.326Z,45.29
2018-06-30T08:29:58.590Z,46.77
2018-06-30T08:30:58.609Z,45
2018-06-30T08:31:58.343Z,45.64
2018-06-30T08:32:58.608Z,45.94
2018-06-30T08:33:58.344Z,47.07
2018-06-30T08:34:58.346Z,46.93
2018-06-30T08:35:58.352Z,48.79
2018-06-30T08:36:58.355Z,48.21
2018-06-30T08:37:58.358Z,49.19
2018-06-30T08:38:58.361Z,48.86
2018-06-30T08:39:58.367Z,48.28
2018-06-30T08:40:58.368Z,48.77
2018-06-30T08:41:58.636Z,49.6
2018-06-30T08:42:58.370Z,49.48
2018-06-30T08:43:58.375Z,50.34
2018-06-30T08:44:58.646Z,51.68
2018-06-30T08:45:58.643Z,52.22
2018-06-30T08:46:58.646Z,53.08
2018-06-30T08:47:58.651Z,54.13
2018-06-30T08:48:58.381Z,54.98
2018-06-30T08:49:58.647Z,56.87
2018-06-30T08:50:58.382Z,57.63
2018-06-30T08:51:58.647Z,57.7
2018-06-30T08:52:58.652Z,59.03
2018-06-30T08:53:58.652Z,60.75
2018-06-30T08:54:58.651Z,61.99
2018-06-30T08:55:58.654Z,62.16
2018-06-30T08:56:58.445Z,61.87
2018-06-30T08:57:58.384Z,63.39
2018-06-30T08:58:58.654Z,62.9
2018-06-30T08:59:58.383Z,64.04
2018-06-30T09:00:58.644Z,63.94
2018-06-30T09:01:58.381Z,61.74
2018-06-30T09:02:58.387Z,61.08
2018-06-30T09:03:58.650Z,59.85
2018-06-30T09:04:58.646Z,58.87
2018-06-30T09:05:58.645Z,56.1
2018-06-30T09:06:58.646Z,54.46
2018-06-30T09:07:58.386Z,55.34
2018-06-30T09:08:58.391Z,54.52
2018-06-30T09:09:58.388Z,52.37
2018-06-30T09:10:58.664Z,52.29
2018-06-30T09:11:58.776Z,51.73
2018-06-30T09:12:58.395Z,51.54
2018-06-30T09:13:58.666Z,49.51
2018-06-30T09:14:58.670Z,49.7
2018-06-30T09:15:58.669Z,49.33
2018-06-30T09:16:58.406Z,49.16
2018-06-30T09:17:58.416Z,48.77
2018-06-30T09:18:58.676Z,48.9
2018-06-30T09:19:58.417Z,48.77
2018-06-30T09:20:58.431Z,49.26
2018-06-30T09:21:58.427Z,49.04
2018-06-30T09:22:58.427Z,49.8
2018-06-30T09:23:58.692Z,49.38
2018-06-30T09:24:58.705Z,50.27
2018-06-30T09:25:58.704Z,50.24
2018-06-30T09:26:58.443Z,50.54
2018-06-30T09:27:58.707Z,51.49
2018-06-30T09:28:58.709Z,51.56
2018-06-30T09:29:58.723Z,52.25
2018-06-30T09:30:58.467Z,52.44
2018-06-30T09:31:58.721Z,52.44
2018-06-30T09:32:58.721Z,52.25
2018-06-30T09:33:58.728Z,53.68
2018-06-30T09:34:58.931Z,53.83
2018-06-30T09:35:58.464Z,53.34
2018-06-30T09:36:58.731Z,53.63
2018-06-30T09:37:58.851Z,51.87
2018-06-30T09:38:58.474Z,51.58
2018-06-30T09:39:58.740Z,51.78
2018-06-30T09:40:58.745Z,52.85
2018-06-30T09:41:58.500Z,50.12
2018-06-30T09:42:58.486Z,49.44
2018-06-30T09:43:58.487Z,49.85
2018-06-30T09:44:58.495Z,50.8
2018-06-30T09:45:58.509Z,52.46
2018-06-30T09:46:58.499Z,52.75
2018-06-30T09:47:58.773Z,53.14
2018-06-30T09:48:58.505Z,52.53
2018-06-30T09:49:58.508Z,53.5
2018-06-30T09:50:58.883Z,52.53
2018-06-30T09:51:58.780Z,52.73
2018-06-30T09:52:58.807Z,53.28
2018-06-30T09:53:58.783Z,53.67
2018-06-30T09:54:58.836Z,53.65
2018-06-30T09:55:58.519Z,54.33
2018-06-30T09:56:58.519Z,54.11
2018-06-30T09:57:58.787Z,54.5
2018-06-30T09:58:58.528Z,55.08
2018-06-30T09:59:58.784Z,55.96
2018-06-30T10:00:58.790Z,56.03
2018-06-30T10:01:58.530Z,53.69
2018-06-30T10:02:58.797Z,54.76
2018-06-30T10:03:58.525Z,54.57
2018-06-30T10:04:58.524Z,54.76
2018-06-30T10:05:58.787Z,53.96
2018-06-30T10:06:58.865Z,52.4
2018-06-30T10:07:58.784Z,53.28
2018-06-30T10:08:58.779Z,52.21
2018-06-30T10:09:58.517Z,53.35
2018-06-30T10:10:58.518Z,51.11
2018-06-30T10:11:58.773Z,50.75
2018-06-30T10:12:58.775Z,48.58
2018-06-30T10:13:58.777Z,49.49
2018-06-30T10:14:58.771Z,49.97
2018-06-30T10:15:58.505Z,52.01
2018-06-30T10:16:58.501Z,48.22
2018-06-30T10:17:58.509Z,49.1
2018-06-30T10:18:58.501Z,48.41
2018-06-30T10:19:58.509Z,49.68
2018-06-30T10:20:58.527Z,49.68
2018-06-30T10:21:58.772Z,50.07
2018-06-30T10:22:58.757Z,50.26
2018-06-30T10:23:58.499Z,48.63
2018-06-30T10:24:58.494Z,46.88
2018-06-30T10:25:58.802Z,45.91
2018-06-30T10:26:58.754Z,44.65
2018-06-30T10:27:58.771Z,44.48
2018-06-30T10:28:58.753Z,44.1
2018-06-30T10:29:58.500Z,42.84
2018-06-30T10:30:58.759Z,43.08
2018-06-30T10:31:58.496Z,42.14
2018-06-30T10:32:58.760Z,42.44
2018-06-30T10:33:58.495Z,42.09
2018-06-30T10:34:58.767Z,41.91
2018-06-30T10:35:58.501Z,41.91
2018-06-30T10:36:58.773Z,41.76
2018-06-30T10:37:58.777Z,41.49
2018-06-30T10:38:58.771Z,38.2
2018-06-30T10:39:58.778Z,37.9
2018-06-30T10:40:58.786Z,38.98
2018-06-30T10:41:58.523Z,39.59
2018-06-30T10:42:58.527Z,38.33
2018-06-30T10:43:58.533Z,37.66
2018-06-30T10:44:58.804Z,37.38
2018-06-30T10:45:58.814Z,37.3
2018-06-30T10:46:58.550Z,35.34
2018-06-30T10:47:58.553Z,36.3
2018-06-30T10:48:58.561Z,36.7
2018-06-30T10:49:58.564Z,36.4
2018-06-30T10:50:58.583Z,36.8
2018-06-30T10:51:58.846Z,36.51
2018-06-30T10:52:58.850Z,36.13
2018-06-30T10:53:58.855Z,35.95
2018-06-30T10:54:58.597Z,34.99
2018-06-30T10:55:58.610Z,34.77
2018-06-30T10:56:58.877Z,35.16
2018-06-30T10:57:58.880Z,34.49
2018-06-30T10:58:58.625Z,35.49
2018-06-30T10:59:58.902Z,35.1
2018-06-30T11:00:58.647Z,35.21
2018-06-30T11:01:58.914Z,35.13
2018-06-30T11:02:58.657Z,34.46
2018-06-30T11:03:59.050Z,34.34
2018-06-30T11:04:58.934Z,34.17
2018-06-30T11:05:59.202Z,33.75
2018-06-30T11:06:58.955Z,33.17
2018-06-30T11:07:58.691Z,33.75
2018-06-30T11:08:58.705Z,32.56
2018-06-30T11:09:58.707Z,33.92
2018-06-30T11:10:59.088Z,33.72
2018-06-30T11:11:58.992Z,34.03
2018-06-30T11:12:58.735Z,32.76
2018-06-30T11:13:58.741Z,33.43
2018-06-30T11:14:58.749Z,34.41
2018-06-30T11:15:58.761Z,33.84
2018-06-30T11:16:58.768Z,32.57
2018-06-30T11:17:59.042Z,32
2018-06-30T11:18:58.778Z,32.79
2018-06-30T11:19:58.792Z,32.21
2018-06-30T11:20:59.058Z,31.52
2018-06-30T11:21:58.805Z,31.82
2018-06-30T11:22:59.076Z,31.7
2018-06-30T11:23:58.821Z,32.8
2018-06-30T11:24:59.098Z,31.72
2018-06-30T11:25:58.842Z,31.24
2018-06-30T11:26:58.850Z,30.94
2018-06-30T11:27:58.872Z,30.35
2018-06-30T11:28:59.131Z,30.43
2018-06-30T11:29:58.873Z,30.73
2018-06-30T11:30:58.882Z,30.22
2018-06-30T11:31:58.895Z,30.82
2018-06-30T11:32:58.898Z,29.93
2018-06-30T11:33:58.910Z,30.13
2018-06-30T11:34:59.392Z,31.01
2018-06-30T11:35:58.926Z,31.01
2018-06-30T11:36:58.937Z,31.98
2018-06-30T11:37:58.949Z,31.79
2018-06-30T11:38:59.215Z,30.8
2018-06-30T11:39:58.958Z,31.39
2018-06-30T11:40:59.421Z,31.31
2018-06-30T11:41:59.245Z,31.6
2018-06-30T11:42:59.247Z,30.83
2018-06-30T11:43:58.997Z,29.65
2018-06-30T11:44:59.009Z,29.14
2018-06-30T11:45:59.289Z,29.43
2018-06-30T11:46:59.319Z,28.05
2018-06-30T11:47:59.294Z,27.44
2018-06-30T11:48:59.304Z,28.33
2018-06-30T11:49:59.049Z,29.02
2018-06-30T11:50:59.057Z,29.31
2018-06-30T11:51:59.066Z,30.19
2018-06-30T11:52:59.340Z,29.71
2018-06-30T11:53:59.347Z,29.03
2018-06-30T11:54:59.356Z,29.43
2018-06-30T11:55:59.379Z,30.22
2018-06-30T11:56:59.373Z,30.83
2018-06-30T11:57:59.385Z,28.86
2018-06-30T11:58:59.393Z,29.65
2018-06-30T11:59:59.140Z,30.83
2018-06-30T12:00:59.416Z,29.76
2018-06-30T12:01:59.473Z,29.27
2018-06-30T12:02:59.510Z,28.86
2018-06-30T12:03:59.439Z,29.65
2018-06-30T12:04:59.182Z,30.51
2018-06-30T12:05:59.455Z,28.26
2018-06-30T12:06:59.465Z,28.24
2018-06-30T12:07:59.207Z,28.63
2018-06-30T12:08:59.477Z,29.51
2018-06-30T12:09:59.230Z,29.03
2018-06-30T12:10:59.498Z,29.43
2018-06-30T12:11:59.514Z,29.65
2018-06-30T12:12:59.248Z,27.79
2018-06-30T12:13:59.522Z,27.59
2018-06-30T12:14:59.268Z,26.32
2018-06-30T12:15:59.277Z,27.19
2018-06-30T12:16:59.552Z,27.68
2018-06-30T12:17:59.296Z,27.2
2018-06-30T12:18:59.566Z,28.09
2018-06-30T12:19:59.580Z,26.72
2018-06-30T12:20:59.609Z,27.81
2018-06-30T12:21:59.601Z,27.13
2018-06-30T12:22:59.615Z,27.03
2018-06-30T12:23:59.612Z,27.41
2018-06-30T12:24:59.623Z,26.43
2018-06-30T12:25:59.635Z,26.32
2018-06-30T12:26:59.386Z,27.01
2018-06-30T12:27:59.387Z,25.93
2018-06-30T12:28:59.659Z,26.53
2018-06-30T12:29:59.670Z,27.66
2018-06-30T12:30:59.680Z,28.74
2018-06-30T12:31:59.782Z,27.08
2018-06-30T12:32:59.698Z,26.87
2018-06-30T12:33:59.702Z,27.23
2018-06-30T12:34:59.720Z,28.02
2018-06-30T12:35:59.462Z,28.03
2018-06-30T12:36:59.738Z,27.74
2018-06-30T12:37:59.743Z,28.22
2018-06-30T12:38:59.770Z,29.11
2018-06-30T12:39:59.500Z,27.76
2018-06-30T12:40:59.770Z,27.09
2018-06-30T12:41:59.518Z,27.5
2018-06-30T12:42:59.529Z,26.13
2018-06-30T12:43:59.534Z,26.62
2018-06-30T12:44:59.903Z,27.72
2018-06-30T12:45:59.560Z,25.74
2018-06-30T12:46:59.562Z,26.53
2018-06-30T12:47:59.569Z,26.81
2018-06-30T12:48:59.583Z,27
2018-06-30T12:49:59.850Z,27.69
2018-06-30T12:50:59.598Z,27.11
2018-06-30T12:51:59.882Z,25.93
2018-06-30T12:52:59.617Z,25.44
2018-06-30T12:53:59.895Z,26.18
2018-06-30T12:54:59.951Z,26.56